Time;durP1;ratioP1;P1;durP2;ratioP2;P2;SDS_P1;SDS_P2;PMS_P1;PMS_P2;Temp;Humidity;BMP_temperature;BMP_pressure;BME280_temperature;BME280_humidity;BME280_pressure;Samples;Min_cycle;Max_cycle;Signal;HPM_P1;HPM_P2
2022/02/28 00:01:37;;;;;;;;;;;;;;;2.85;60.89;102060.05;1738832;81;20141;-83
2022/02/28 00:04:03;;;;;;;;;;;;;;;2.64;61.45;102055.64;1729466;81;21084;-80
2022/02/28 00:06:28;;;;;;;;;;;;;;;2.67;61.55;102059.44;1740525;81;20334;-83
2022/02/28 00:08:54;;;;;;;;;;;;;;;2.44;62.30;102060.30;1740389;80;21923;-77
2022/02/28 00:11:19;;;;;;;;;;;;;;;2.39;62.50;102057.02;1734962;81;20216;-76
2022/02/28 00:13:45;;;;;;;;;;;;;;;2.45;62.26;102052.41;1733157;81;20154;-82
2022/02/28 00:16:11;;;;;;;;;;;;;;;2.33;62.61;102050.25;1744115;81;20194;-78
2022/02/28 00:18:36;;;;;;;;;;;;;;;2.39;62.34;102057.02;1737013;81;20161;-76
2022/02/28 00:21:02;;;;;;;;;;;;;;;2.41;62.20;102052.16;1740244;81;21113;-82
2022/02/28 00:23:27;;;;;;;;;;;;;;;2.51;61.93;102053.49;1735698;80;20140;-79
2022/02/28 00:25:53;;;;;;;;;;;;;;;2.49;62.23;102059.23;1736784;81;20144;-77
2022/02/28 00:28:19;;;;;;;;;;;;;;;2.25;63.16;102049.69;1738608;81;20231;-77
2022/02/28 00:30:44;;;;;;;;;;;;;;;2.09;63.52;102047.63;1742391;81;20787;-81
2022/02/28 00:33:10;;;;;;;;;;;;;;;1.96;64.01;102045.92;1739899;80;21991;-78
2022/02/28 00:35:36;;;;;;;;;;;;;;;2.14;63.48;102047.47;1736924;81;20105;-80
2022/02/28 00:38:03;;;;;;;;;;;;;;;2.27;63.19;102043.53;1737335;80;20175;-78
2022/02/28 00:40:28;;;;;;;;;;;;;;;2.34;62.77;102041.08;1734680;80;20141;-79
2022/02/28 00:42:54;;;;;;;;;;;;;;;2.40;62.61;102045.23;1734512;80;20167;-83
2022/02/28 00:45:20;;;;;;;;;;;;;;;2.46;62.38;102040.25;1743969;81;21157;-77
2022/02/28 00:47:45;;;;;;;;;;;;;;;2.51;62.09;102039.15;1735925;81;20616;-78
2022/02/28 00:50:11;;;;;;;;;;;;;;;2.51;62.23;102043.06;1728772;80;20143;-76
2022/02/28 00:52:37;;;;;;;;;;;;;;;2.53;62.24;102038.25;1749548;80;20110;-76
2022/02/28 00:55:03;;;;;;;;;;;;;;;2.20;63.63;102038.12;1757598;80;20175;-81
2022/02/28 00:57:28;;;;;;;;;;;;;;;2.27;63.36;102047.88;1733259;81;21031;-86
2022/02/28 00:59:54;;;;;;;;;;;;;;;1.82;64.70;102044.25;1736009;81;20285;-76
2022/02/28 01:02:20;;;;;;;;;;;;;;;1.71;65.85;102034.63;1724923;80;20140;-76
2022/02/28 01:04:47;;;;;;;;;;;;;;;1.48;66.49;102034.13;1741012;81;20169;-80
2022/02/28 01:07:13;;;;;;;;;;;;;;;1.50;66.84;102033.62;1737937;81;20567;-87
2022/02/28 01:09:38;;;;;;;;;;;;;;;1.67;66.46;102032.59;1735417;81;21004;-79
2022/02/28 01:12:06;;;;;;;;;;;;;;;1.73;65.87;102027.17;1739697;80;20664;-76
2022/02/28 01:14:32;;;;;;;;;;;;;;;1.70;66.24;102026.44;1741816;81;20590;-79
2022/02/28 01:16:57;;;;;;;;;;;;;;;1.81;66.04;102028.67;1735097;81;20177;-77
2022/02/28 01:19:23;;;;;;;;;;;;;;;1.77;66.08;102026.17;1739369;81;20128;-83
2022/02/28 01:21:49;;;;;;;;;;;;;;;1.98;65.82;102027.16;1727783;81;21172;-80
2022/02/28 01:24:14;;;;;;;;;;;;;;;2.13;65.26;102029.69;1740782;81;21329;-76
2022/02/28 01:26:41;;;;;;;;;;;;;;;2.31;64.92;102022.09;1732895;81;20168;-84
2022/02/28 01:29:07;;;;;;;;;;;;;;;2.33;64.77;102025.48;1739609;81;21112;-78
2022/02/28 01:31:33;;;;;;;;;;;;;;;2.37;64.39;102023.17;1740231;81;20122;-76
2022/02/28 01:33:58;;;;;;;;;;;;;;;2.51;63.69;102030.02;1743991;81;21814;-79
2022/02/28 01:36:24;;;;;;;;;;;;;;;2.53;63.51;102031.27;1735267;80;20193;-78
2022/02/28 01:38:49;;;;;;;;;;;;;;;2.46;63.47;102027.21;1730896;81;20591;-79
2022/02/28 01:41:15;;;;;;;;;;;;;;;2.34;63.79;102025.89;1741716;81;20740;-76
2022/02/28 01:43:41;;;;;;;;;;;;;;;2.37;63.58;102040.13;1743915;81;20284;-79
2022/02/28 01:46:06;;;;;;;;;;;;;;;2.43;63.44;102033.84;1742304;81;21088;-79
2022/02/28 01:48:32;;;;;;;;;;;;;;;2.43;63.48;102038.59;1741308;80;20313;-77
2022/02/28 01:50:57;;;;;;;;;;;;;;;2.31;64.00;102041.19;1740059;80;20173;-83
2022/02/28 01:53:23;;;;;;;;;;;;;;;2.22;64.29;102036.77;1732130;81;20216;-79
2022/02/28 01:55:49;;;;;;;;;;;;;;;1.88;65.66;102040.56;1731606;81;20628;-77
2022/02/28 01:58:14;;;;;;;;;;;;;;;1.77;66.27;102036.59;1732906;81;21869;-78
2022/02/28 02:00:40;;;;;;;;;;;;;;;2.01;65.12;102048.36;1738853;81;20224;-79
2022/02/28 02:03:06;;;;;;;;;;;;;;;2.10;64.73;102048.50;1737279;81;20174;-77
2022/02/28 02:05:32;;;;;;;;;;;;;;;2.01;64.99;102052.27;1740895;80;20976;-83
2022/02/28 02:07:58;;;;;;;;;;;;;;;2.07;64.94;102049.45;1741633;80;20179;-83
2022/02/28 02:10:24;;;;;;;;;;;;;;;2.09;64.73;102051.54;1746996;80;21177;-78
2022/02/28 02:12:50;;;;;;;;;;;;;;;1.95;65.01;102042.06;1733702;81;20142;-86
2022/02/28 02:15:15;;;;;;;;;;;;;;;1.67;66.06;102044.31;1734304;81;20499;-77
2022/02/28 02:17:41;;;;;;;;;;;;;;;1.70;66.22;102042.91;1704940;81;21187;-77
2022/02/28 02:20:11;;;;;;;;;;;;;;;1.78;66.15;102040.88;1713237;81;20227;-81
2022/02/28 02:22:37;;;;;;;;;;;;;;;1.89;65.62;102043.58;1708904;81;20979;-78
2022/02/28 02:25:03;;;;;;;;;;;;;;;1.85;65.90;102043.27;1716222;81;20148;-79
2022/02/28 02:27:28;;;;;;;;;;;;;;;1.93;65.66;102036.06;1735280;81;20199;-78
2022/02/28 02:29:54;;;;;;;;;;;;;;;1.92;65.56;102041.70;1738186;81;20791;-84
2022/02/28 02:32:19;;;;;;;;;;;;;;;1.91;65.52;102043.06;1738555;81;20136;-83
2022/02/28 02:34:45;;;;;;;;;;;;;;;1.77;66.00;102043.11;1743806;81;21071;-78
2022/02/28 02:37:12;;;;;;;;;;;;;;;1.88;65.76;102037.96;1737929;80;20941;-78
2022/02/28 02:39:41;;;;;;;;;;;;;;;1.91;65.63;102037.42;1742184;81;20245;-81
2022/02/28 02:42:07;;;;;;;;;;;;;;;1.82;65.86;102038.17;1745144;81;20222;-83
2022/02/28 02:44:33;;;;;;;;;;;;;;;1.71;66.25;102041.14;1738307;80;20165;-80
2022/02/28 02:46:59;;;;;;;;;;;;;;;1.50;67.24;102037.52;1747633;81;21157;-80
2022/02/28 02:49:24;;;;;;;;;;;;;;;1.49;67.25;102039.29;1734160;80;20222;-77
2022/02/28 02:51:50;;;;;;;;;;;;;;;1.50;67.37;102037.52;1742491;81;20120;-79
2022/02/28 02:54:16;;;;;;;;;;;;;;;1.60;66.88;102037.59;1729728;81;20199;-78
2022/02/28 02:56:41;;;;;;;;;;;;;;;1.36;68.22;102036.21;1748449;80;20228;-77
2022/02/28 02:59:07;;;;;;;;;;;;;;;1.46;68.12;102043.72;1752463;80;22063;-84
2022/02/28 03:01:33;;;;;;;;;;;;;;;1.57;67.79;102038.57;1762554;80;20148;-83
2022/02/28 03:03:58;;;;;;;;;;;;;;;1.42;68.12;102038.61;1765357;80;20136;-79
2022/02/28 03:06:24;;;;;;;;;;;;;;;1.50;68.54;102043.57;1755596;80;20144;-82
2022/02/28 03:08:50;;;;;;;;;;;;;;;1.60;68.21;102036.30;1750561;80;20221;-81
2022/02/28 03:11:16;;;;;;;;;;;;;;;1.65;67.97;102042.65;1776030;80;21869;-76
2022/02/28 03:13:41;;;;;;;;;;;;;;;1.79;67.49;102039.98;1742248;81;20187;-80
2022/02/28 03:16:07;;;;;;;;;;;;;;;1.62;67.90;102044.92;1765190;80;20496;-81
2022/02/28 03:18:32;;;;;;;;;;;;;;;1.56;68.23;102043.83;1754440;81;21312;-83
2022/02/28 03:20:58;;;;;;;;;;;;;;;1.52;67.92;102048.73;1726147;80;20141;-79
2022/02/28 03:23:24;;;;;;;;;;;;;;;1.55;67.88;102047.33;1732200;81;22369;-80
2022/02/28 03:25:50;;;;;;;;;;;;;;;1.40;68.24;102048.23;1746550;81;20155;-79
2022/02/28 03:28:17;;;;;;;;;;;;;;;1.55;67.55;102045.56;1745333;80;20202;-86
2022/02/28 03:30:43;;;;;;;;;;;;;;;1.51;67.54;102045.72;1750831;80;20217;-84
2022/02/28 03:33:08;;;;;;;;;;;;;;;1.68;67.07;102055.14;1739086;81;20192;-80
2022/02/28 03:35:34;;;;;;;;;;;;;;;1.46;67.46;102046.33;1744988;81;21081;-77
2022/02/28 03:37:59;;;;;;;;;;;;;;;1.43;67.68;102050.74;1750962;81;20466;-79
2022/02/28 03:40:25;;;;;;;;;;;;;;;1.42;67.73;102052.94;1747222;81;20213;-82
2022/02/28 03:42:51;;;;;;;;;;;;;;;1.26;68.24;102053.05;1749054;81;20199;-78
2022/02/28 03:45:18;;;;;;;;;;;;;;;1.13;68.80;102054.32;1745242;81;20192;-80
2022/02/28 03:47:44;;;;;;;;;;;;;;;1.05;69.05;102060.60;1746875;80;21197;-88
2022/02/28 03:50:10;;;;;;;;;;;;;;;1.03;68.89;102057.20;1740201;81;20444;-82
2022/02/28 03:52:35;;;;;;;;;;;;;;;0.96;69.10;102058.28;1749637;80;20145;-84
2022/02/28 03:55:01;;;;;;;;;;;;;;;1.06;68.87;102061.48;1736405;81;21831;-85
2022/02/28 03:57:26;;;;;;;;;;;;;;;1.15;68.56;102053.39;1711359;81;20256;-81
2022/02/28 03:59:52;;;;;;;;;;;;;;;1.07;68.66;102064.03;1714599;81;21136;-79
2022/02/28 04:02:18;;;;;;;;;;;;;;;1.03;68.62;102058.51;1719566;81;20164;-85
2022/02/28 04:04:43;;;;;;;;;;;;;;;0.97;68.95;102066.50;1727122;81;20472;-79
2022/02/28 04:07:10;;;;;;;;;;;;;;;0.87;69.30;102061.16;1721178;81;20227;-83
2022/02/28 04:09:36;;;;;;;;;;;;;;;0.95;69.10;102061.80;1716223;81;20256;-78
2022/02/28 04:12:03;;;;;;;;;;;;;;;0.89;69.36;102066.73;1708342;81;21061;-79
2022/02/28 04:14:28;;;;;;;;;;;;;;;0.78;69.73;102062.73;1677690;82;20125;-80
2022/02/28 04:16:54;;;;;;;;;;;;;;;0.75;69.62;102064.16;1706666;82;21512;-78
2022/02/28 04:19:19;;;;;;;;;;;;;;;0.83;69.40;102066.08;1741212;80;20710;-78
2022/02/28 04:21:45;;;;;;;;;;;;;;;0.86;69.24;102072.48;1719307;80;20142;-77
2022/02/28 04:24:10;;;;;;;;;;;;;;;0.90;69.03;102075.38;1711193;81;21160;-78
2022/02/28 04:26:36;;;;;;;;;;;;;;;0.81;69.08;102074.34;1703265;81;20171;-86
2022/02/28 04:29:03;;;;;;;;;;;;;;;0.71;69.42;102070.75;1722133;81;20495;-84
2022/02/28 04:31:28;;;;;;;;;;;;;;;0.79;69.21;102070.95;1715048;81;20956;-82
2022/02/28 04:33:54;;;;;;;;;;;;;;;0.75;69.38;102075.86;1724063;81;20259;-78
2022/02/28 04:36:21;;;;;;;;;;;;;;;0.84;69.00;102084.23;1723334;80;21178;-81
2022/02/28 04:38:46;;;;;;;;;;;;;;;0.83;68.82;102073.42;1721511;80;20149;-83
2022/02/28 04:41:12;;;;;;;;;;;;;;;0.51;69.75;102079.55;1710831;81;20188;-78
2022/02/28 04:43:38;;;;;;;;;;;;;;;0.61;69.48;102081.00;1715103;81;20447;-83
2022/02/28 04:46:04;;;;;;;;;;;;;;;0.69;69.40;102081.63;1721920;81;20973;-83
2022/02/28 04:48:30;;;;;;;;;;;;;;;0.70;69.33;102077.30;1723640;81;21141;-80
2022/02/28 04:50:57;;;;;;;;;;;;;;;0.35;70.60;102087.77;1721128;81;20234;-84
2022/02/28 04:53:23;;;;;;;;;;;;;;;0.29;70.87;102084.05;1711035;81;20229;-79
2022/02/28 04:55:50;;;;;;;;;;;;;;;0.39;70.79;102081.19;1730723;80;20742;-80
2022/02/28 04:58:15;;;;;;;;;;;;;;;0.39;70.70;102082.49;1742485;80;20215;-77
2022/02/28 05:00:41;;;;;;;;;;;;;;;0.43;70.89;102081.52;1765804;79;21053;-78
2022/02/28 05:03:06;;;;;;;;;;;;;;;0.38;70.64;102084.70;1744965;80;20132;-83
2022/02/28 05:05:34;;;;;;;;;;;;;;;0.24;71.09;102070.33;1741316;80;20132;-77
2022/02/28 05:08:00;;;;;;;;;;;;;;;0.26;71.01;102074.19;1737367;80;20519;-78
2022/02/28 05:10:25;;;;;;;;;;;;;;;0.12;71.51;102074.56;1739101;80;20135;-80
2022/02/28 05:12:51;;;;;;;;;;;;;;;0.04;71.85;102071.33;1744959;80;21247;-84
2022/02/28 05:15:17;;;;;;;;;;;;;;;0.13;71.70;102084.08;1710215;81;20229;-88
2022/02/28 05:17:42;;;;;;;;;;;;;;;0.05;71.79;102084.70;1687560;81;20222;-78
2022/02/28 05:20:08;;;;;;;;;;;;;;;0.01;71.78;102083.09;1744462;80;20166;-79
2022/02/28 05:22:34;;;;;;;;;;;;;;;-0.18;72.07;102087.47;1745590;81;20171;-77
2022/02/28 05:25:00;;;;;;;;;;;;;;;-0.20;72.18;102089.26;1742539;81;20995;-81
2022/02/28 05:27:25;;;;;;;;;;;;;;;0.20;71.02;102088.19;1765886;79;21022;-78
2022/02/28 05:29:51;;;;;;;;;;;;;;;0.19;70.86;102091.70;1732889;82;20131;-77
2022/02/28 05:32:17;;;;;;;;;;;;;;;0.17;70.73;102097.36;1718716;82;20159;-77
2022/02/28 05:34:42;;;;;;;;;;;;;;;0.08;70.87;102101.50;1719346;82;20210;-78
2022/02/28 05:37:08;;;;;;;;;;;;;;;0.26;70.45;102102.31;1714026;82;21162;-79
2022/02/28 05:39:33;;;;;;;;;;;;;;;0.37;70.10;102105.08;1750783;80;20138;-79
2022/02/28 05:41:59;;;;;;;;;;;;;;;0.28;69.96;102107.47;1742820;81;20137;-80
2022/02/28 05:44:25;;;;;;;;;;;;;;;0.11;70.25;102109.22;1747900;81;20160;-78
2022/02/28 05:46:50;;;;;;;;;;;;;;;0.37;69.79;102112.88;1739083;80;20953;-78
2022/02/28 05:49:16;;;;;;;;;;;;;;;0.12;70.26;102100.55;1742671;81;21152;-83
2022/02/28 05:51:41;;;;;;;;;;;;;;;0.11;70.55;102106.62;1738485;80;20481;-78
2022/02/28 05:54:07;;;;;;;;;;;;;;;0.21;70.46;102107.25;1741810;81;20189;-79
2022/02/28 05:56:33;;;;;;;;;;;;;;;0.07;70.47;102110.21;1746727;81;20145;-80
2022/02/28 05:58:59;;;;;;;;;;;;;;;0.09;70.44;102105.81;1743145;81;20157;-83
2022/02/28 06:01:25;;;;;;;;;;;;;;;0.12;70.40;102114.83;1742989;81;21209;-77
2022/02/28 06:03:50;;;;;;;;;;;;;;;0.04;70.69;102118.08;1733424;80;20488;-78
2022/02/28 06:06:16;;;;;;;;;;;;;;;0.27;70.20;102117.02;1743048;81;20158;-79
2022/02/28 06:08:41;;;;;;;;;;;;;;;0.26;70.13;102118.36;1747293;81;20144;-84
2022/02/28 06:11:07;;;;;;;;;;;;;;;0.31;69.92;102117.36;1738870;80;20218;-79
2022/02/28 06:13:33;;;;;;;;;;;;;;;0.12;70.28;102127.82;1746213;81;21194;-78
2022/02/28 06:15:59;;;;;;;;;;;;;;;0.22;70.12;102121.92;1743062;81;20419;-77
2022/02/28 06:18:25;;;;;;;;;;;;;;;0.25;70.15;102121.42;1741705;80;20224;-81
2022/02/28 06:20:50;;;;;;;;;;;;;;;0.40;69.71;102125.33;1743903;81;21040;-83
2022/02/28 06:23:16;;;;;;;;;;;;;;;0.20;69.95;102124.56;1744412;81;20371;-82
2022/02/28 06:25:42;;;;;;;;;;;;;;;0.27;70.06;102131.31;1735321;80;21081;-77
2022/02/28 06:28:08;;;;;;;;;;;;;;;0.25;70.13;102130.94;1732038;80;20178;-80
2022/02/28 06:30:34;;;;;;;;;;;;;;;0.40;69.89;102130.98;1743047;80;20138;-85
2022/02/28 06:33:00;;;;;;;;;;;;;;;0.28;69.86;102139.53;1742407;81;20150;-78
2022/02/28 06:35:25;;;;;;;;;;;;;;;0.44;69.86;102143.02;1748912;81;20281;-79
2022/02/28 06:37:51;;;;;;;;;;;;;;;0.56;69.49;102143.11;1742797;81;21088;-78
2022/02/28 06:40:16;;;;;;;;;;;;;;;0.50;69.42;102148.05;1744757;80;20174;-83
2022/02/28 06:42:42;;;;;;;;;;;;;;;0.50;69.21;102151.95;1738417;81;20519;-79
2022/02/28 06:45:08;;;;;;;;;;;;;;;0.50;69.65;102154.55;1742222;81;20158;-80
2022/02/28 06:47:34;;;;;;;;;;;;;;;0.38;70.22;102153.58;1740512;80;20169;-79
2022/02/28 06:49:59;;;;;;;;;;;;;;;0.62;69.26;102159.41;1746971;81;21118;-79
2022/02/28 06:52:25;;;;;;;;;;;;;;;0.63;69.27;102167.59;1741366;80;20150;-79
2022/02/28 06:54:56;;;;;;;;;;;;;;;0.61;69.36;102164.20;1742470;80;20749;-79
2022/02/28 06:57:18;;;;;;;;;;;;;;;0.79;68.96;102164.58;1748612;80;20461;-80
2022/02/28 06:59:44;;;;;;;;;;;;;;;0.70;68.67;102170.45;1743302;80;20123;-81
2022/02/28 07:02:10;;;;;;;;;;;;;;;0.97;68.46;102169.25;1738177;80;21147;-79
2022/02/28 07:04:35;;;;;;;;;;;;;;;1.13;68.24;102176.62;1744379;80;20185;-80
2022/02/28 07:07:01;;;;;;;;;;;;;;;0.94;67.84;102179.75;1743496;80;20138;-79
2022/02/28 07:09:26;;;;;;;;;;;;;;;1.08;67.64;102182.80;1745668;80;21112;-80
2022/02/28 07:11:52;;;;;;;;;;;;;;;1.06;67.70;102174.19;1749806;80;20179;-79
2022/02/28 07:14:18;;;;;;;;;;;;;;;1.19;67.31;102185.55;1746592;80;21160;-81
2022/02/28 07:16:44;;;;;;;;;;;;;;;1.29;66.87;102180.48;1744721;80;20181;-83
2022/02/28 07:19:09;;;;;;;;;;;;;;;1.33;66.95;102183.83;1748435;80;20140;-78
2022/02/28 07:21:35;;;;;;;;;;;;;;;1.36;66.83;102188.48;1742043;80;20190;-77
2022/02/28 07:24:01;;;;;;;;;;;;;;;1.53;66.49;102191.04;1739958;80;20140;-85
2022/02/28 07:26:29;;;;;;;;;;;;;;;1.54;65.99;102201.84;1750422;80;21938;-81
2022/02/28 07:28:55;;;;;;;;;;;;;;;1.52;66.06;102193.23;1752451;80;20136;-79
2022/02/28 07:31:20;;;;;;;;;;;;;;;1.64;65.57;102194.16;1752512;80;20218;-80
2022/02/28 07:33:46;;;;;;;;;;;;;;;1.55;66.03;102197.05;1736887;80;20480;-77
2022/02/28 07:36:12;;;;;;;;;;;;;;;1.77;65.47;102205.91;1752956;80;20218;-85
2022/02/28 07:38:39;;;;;;;;;;;;;;;1.75;65.26;102199.87;1741886;80;21141;-84
2022/02/28 07:41:05;;;;;;;;;;;;;;;1.68;65.19;102204.89;1744312;80;20215;-81
2022/02/28 07:43:31;;;;;;;;;;;;;;;1.88;64.98;102208.17;1745249;80;20169;-79
2022/02/28 07:45:56;;;;;;;;;;;;;;;2.05;64.43;102217.17;1737758;80;20704;-84
2022/02/28 07:48:22;;;;;;;;;;;;;;;2.12;64.69;102214.32;1752849;80;20116;-82
2022/02/28 07:50:48;;;;;;;;;;;;;;;2.19;64.20;102220.20;1748180;80;21084;-81
2022/02/28 07:53:13;;;;;;;;;;;;;;;2.23;64.23;102216.57;1750504;80;20132;-80
2022/02/28 07:55:39;;;;;;;;;;;;;;;2.45;63.93;102212.78;1745003;80;20528;-81
2022/02/28 07:58:04;;;;;;;;;;;;;;;2.27;63.85;102222.53;1747651;81;20672;-79
2022/02/28 08:00:30;;;;;;;;;;;;;;;2.27;63.90;102226.44;1745346;81;20129;-80
2022/02/28 08:02:56;;;;;;;;;;;;;;;2.44;63.66;102235.88;1741050;81;21154;-79
2022/02/28 08:05:21;;;;;;;;;;;;;;;2.26;63.70;102233.87;1742823;81;20218;-79
2022/02/28 08:07:47;;;;;;;;;;;;;;;2.42;63.63;102228.53;1745349;81;20148;-79
2022/02/28 08:10:13;;;;;;;;;;;;;;;2.40;63.77;102231.66;1746608;81;20438;-83
2022/02/28 08:12:39;;;;;;;;;;;;;;;2.36;63.81;102237.86;1742642;81;20178;-79
2022/02/28 08:15:05;;;;;;;;;;;;;;;2.36;63.78;102237.86;1742813;81;21135;-80
2022/02/28 08:17:31;;;;;;;;;;;;;;;2.42;63.67;102234.21;1746746;81;20498;-82
2022/02/28 08:19:57;;;;;;;;;;;;;;;2.46;63.73;102239.27;1744413;81;20624;-80
2022/02/28 08:22:22;;;;;;;;;;;;;;;2.48;63.89;102234.84;1741937;81;20772;-79
2022/02/28 08:24:48;;;;;;;;;;;;;;;2.66;63.77;102240.36;1739420;81;20142;-80
2022/02/28 08:27:13;;;;;;;;;;;;;;;2.69;63.61;102237.17;1743171;81;21154;-79
2022/02/28 08:29:39;;;;;;;;;;;;;;;2.82;63.41;102236.28;1746584;81;20136;-78
2022/02/28 08:32:05;;;;;;;;;;;;;;;2.86;62.90;102243.11;1741197;81;20450;-79
2022/02/28 08:34:30;;;;;;;;;;;;;;;2.94;62.82;102239.39;1741117;81;20768;-82
2022/02/28 08:36:56;;;;;;;;;;;;;;;2.90;63.08;102239.92;1741312;81;20222;-82
2022/02/28 08:39:22;;;;;;;;;;;;;;;3.02;62.87;102245.17;1742851;81;21221;-79
2022/02/28 08:41:48;;;;;;;;;;;;;;;3.15;62.41;102242.95;1743543;81;20147;-81
2022/02/28 08:44:13;;;;;;;;;;;;;;;3.16;62.02;102242.91;1740012;81;20784;-81
2022/02/28 08:46:39;;;;;;;;;;;;;;;3.16;62.00;102244.67;1744179;81;20777;-82
2022/02/28 08:49:05;;;;;;;;;;;;;;;3.24;61.80;102243.45;1746660;81;20108;-82
2022/02/28 08:51:30;;;;;;;;;;;;;;;3.29;61.88;102243.29;1747678;81;21143;-85
2022/02/28 08:53:56;;;;;;;;;;;;;;;3.49;61.49;102245.62;1740721;81;20197;-81
2022/02/28 08:56:21;;;;;;;;;;;;;;;3.63;61.19;102251.63;1747255;81;20148;-80
2022/02/28 08:58:47;;;;;;;;;;;;;;;3.81;61.09;102248.30;1744617;81;20158;-81
2022/02/28 09:01:12;;;;;;;;;;;;;;;3.99;60.42;102248.47;1749349;81;20124;-79
2022/02/28 09:03:38;;;;;;;;;;;;;;;4.06;59.50;102249.94;1743643;81;21069;-83
2022/02/28 09:06:04;;;;;;;;;;;;;;;3.71;59.43;102252.16;1750147;80;20213;-80
2022/02/28 09:08:29;;;;;;;;;;;;;;;3.86;59.20;102251.56;1747559;80;20156;-79
2022/02/28 09:10:55;;;;;;;;;;;;;;;4.04;59.29;102246.51;1747916;80;20435;-80
2022/02/28 09:13:21;;;;;;;;;;;;;;;4.15;59.23;102254.79;1746971;80;20116;-81
2022/02/28 09:15:46;;;;;;;;;;;;;;;4.21;58.98;102249.75;1745678;80;21137;-80
2022/02/28 09:18:12;;;;;;;;;;;;;;;4.31;58.49;102258.45;1759044;80;20128;-80
2022/02/28 09:20:38;;;;;;;;;;;;;;;4.53;58.47;102251.02;1738364;80;20294;-82
2022/02/28 09:23:04;;;;;;;;;;;;;;;4.67;57.90;102253.89;1739160;80;20166;-80
2022/02/28 09:25:30;;;;;;;;;;;;;;;4.63;57.60;102253.66;1746405;80;20188;-81
2022/02/28 09:27:56;;;;;;;;;;;;;;;4.83;57.59;102259.78;1749625;80;22421;-82
2022/02/28 09:30:21;;;;;;;;;;;;;;;4.84;56.75;102256.25;1750874;80;20171;-83
2022/02/28 09:32:47;;;;;;;;;;;;;;;4.80;56.51;102258.60;1714937;82;20135;-82
2022/02/28 09:35:13;;;;;;;;;;;;;;;4.85;55.96;102256.66;1673354;84;20105;-82
2022/02/28 09:37:39;;;;;;;;;;;;;;;5.00;56.32;102257.30;1750200;80;20153;-82
2022/02/28 09:40:06;;;;;;;;;;;;;;;5.02;55.70;102257.23;1744212;80;21086;-83
2022/02/28 09:42:32;;;;;;;;;;;;;;;4.90;55.00;102259.91;1748396;80;20202;-80
2022/02/28 09:44:58;;;;;;;;;;;;;;;5.04;55.02;102256.22;1745663;80;20680;-83
2022/02/28 09:47:23;;;;;;;;;;;;;;;5.09;54.72;102257.33;1743857;80;20133;-78
2022/02/28 09:49:49;;;;;;;;;;;;;;;5.23;53.92;102262.41;1747379;80;20253;-83
2022/02/28 09:52:14;;;;;;;;;;;;;;;5.36;53.55;102264.84;1738154;80;21964;-80
2022/02/28 09:54:40;;;;;;;;;;;;;;;5.49;52.84;102261.23;1745912;80;20140;-80
2022/02/28 09:57:07;;;;;;;;;;;;;;;5.35;50.65;102262.70;1743143;80;20150;-79
2022/02/28 09:59:37;;;;;;;;;;;;;;;5.36;51.18;102260.48;1741385;80;21368;-77
2022/02/28 10:02:03;;;;;;;;;;;;;;;5.47;50.33;102260.43;1741429;81;20192;-78
2022/02/28 10:04:29;;;;;;;;;;;;;;;5.33;49.39;102267.17;1739133;81;21068;-75
2022/02/28 10:06:54;;;;;;;;;;;;;;;5.64;49.63;102256.59;1746979;81;20652;-79
2022/02/28 10:09:20;;;;;;;;;;;;;;;5.69;48.77;102261.14;1747405;81;20160;-78
2022/02/28 10:11:50;;;;;;;;;;;;;;;5.68;48.59;102262.52;1743397;80;20236;-83
2022/02/28 10:14:16;;;;;;;;;;;;;;;5.74;48.10;102263.08;1749473;81;20142;-78
2022/02/28 10:16:48;;;;;;;;;;;;;;;5.82;46.78;102262.71;1737029;81;21148;-80
2022/02/28 10:19:29;;;;;;;;;;;;;;;5.68;45.86;102260.74;1743929;81;20126;-79
2022/02/28 10:21:56;;;;;;;;;;;;;;;5.54;46.19;102266.63;1745320;81;20170;-79
2022/02/28 10:24:27;;;;;;;;;;;;;;;5.77;46.13;102259.94;1741644;81;20172;-78
2022/02/28 10:26:59;;;;;;;;;;;;;;;5.81;45.80;102261.47;1746880;80;20998;-80
2022/02/28 10:29:31;;;;;;;;;;;;;;;5.86;45.83;102256.88;1745029;81;21150;-77
2022/02/28 10:32:02;;;;;;;;;;;;;;;5.86;44.82;102259.50;1741667;81;20120;-78
2022/02/28 10:34:30;;;;;;;;;;;;;;;6.04;44.46;102252.06;1743644;81;20560;-77
2022/02/28 10:37:02;;;;;;;;;;;;;;;6.18;44.07;102258.42;1746186;81;20887;-76
2022/02/28 10:39:32;;;;;;;;;;;;;;;6.16;43.76;102255.03;1738004;80;20243;-81
2022/02/28 10:42:04;;;;;;;;;;;;;;;6.21;43.78;102255.17;1749294;80;21066;-80
2022/02/28 10:44:29;;;;;;;;;;;;;;;6.28;42.92;102259.67;1738292;81;20198;-81
2022/02/28 10:46:56;;;;;;;;;;;;;;;6.33;42.65;102258.14;1745574;80;33144;-78
2022/02/28 10:49:24;;;;;;;;;;;;;;;6.33;42.03;102264.70;1734969;81;20563;-80
2022/02/28 10:51:54;;;;;;;;;;;;;;;6.54;42.35;102256.19;1740839;80;20238;-82
2022/02/28 10:54:23;;;;;;;;;;;;;;;6.54;41.53;102253.56;1748318;81;21926;-79
2022/02/28 10:56:55;;;;;;;;;;;;;;;6.64;42.09;102253.50;1740515;80;20512;-79
2022/02/28 10:59:23;;;;;;;;;;;;;;;6.77;41.52;102260.27;1717815;81;21107;-80
2022/02/28 11:01:49;;;;;;;;;;;;;;;6.58;40.17;102257.75;1716907;81;21197;-86
2022/02/28 11:04:14;;;;;;;;;;;;;;;6.45;39.61;102260.98;1714262;81;20184;-80
2022/02/28 11:06:42;;;;;;;;;;;;;;;6.59;39.59;102256.83;1709067;81;22426;-80
2022/02/28 11:09:07;;;;;;;;;;;;;;;6.63;39.96;102259.66;1716144;81;20607;-82
2022/02/28 11:11:33;;;;;;;;;;;;;;;6.71;39.16;102258.83;1712074;81;20129;-79
2022/02/28 11:13:59;;;;;;;;;;;;;;;6.81;39.42;102252.16;1712446;81;20157;-78
2022/02/28 11:16:28;;;;;;;;;;;;;;;6.89;39.16;102253.54;1717239;81;20304;-79
2022/02/28 11:18:54;;;;;;;;;;;;;;;6.82;38.89;102252.55;1720691;81;21154;-78
2022/02/28 11:21:19;;;;;;;;;;;;;;;6.73;39.20;102250.39;1728271;81;20148;-80
2022/02/28 11:23:46;;;;;;;;;;;;;;;6.86;38.15;102248.45;1713093;81;20136;-79
2022/02/28 11:26:15;;;;;;;;;;;;;;;6.79;38.02;102250.08;1735383;81;20945;-79
2022/02/28 11:28:41;;;;;;;;;;;;;;;6.77;37.71;102253.23;1715799;81;20562;-78
2022/02/28 11:31:09;;;;;;;;;;;;;;;6.68;37.81;102253.73;1716316;81;21098;-81
2022/02/28 11:33:35;;;;;;;;;;;;;;;6.91;37.81;102251.20;1712891;81;20185;-79
2022/02/28 11:36:01;;;;;;;;;;;;;;;6.54;37.49;102253.56;1716484;81;20223;-79
2022/02/28 11:38:30;;;;;;;;;;;;;;;6.70;37.78;102245.78;1716158;81;20450;-80
2022/02/28 11:41:03;;;;;;;;;;;;;;;6.95;38.00;102241.41;1719590;81;20663;-82
2022/02/28 11:43:36;;;;;;;;;;;;;;;7.05;37.02;102250.47;1706759;81;20867;-79
2022/02/28 11:46:08;;;;;;;;;;;;;;;7.10;36.78;102241.91;1722165;81;20167;-78
2022/02/28 11:48:37;;;;;;;;;;;;;;;7.13;36.51;102241.74;1721277;81;20458;-78
2022/02/28 11:51:23;;;;;;;;;;;;;;;7.09;36.71;102241.98;1707081;82;20177;-81
2022/02/28 11:53:58;;;;;;;;;;;;;;;7.10;35.61;102249.79;1733540;82;20142;-79
2022/02/28 11:56:28;;;;;;;;;;;;;;;7.14;36.32;102249.14;1722338;81;20675;-82
2022/02/28 11:58:55;;;;;;;;;;;;;;;7.22;36.51;102250.05;1716949;81;20487;-79
2022/02/28 12:01:35;;;;;;;;;;;;;;;7.16;36.74;102244.20;1735847;80;20248;-78
2022/02/28 12:04:10;;;;;;;;;;;;;;;7.22;37.34;102244.80;1719004;82;20198;-79
2022/02/28 12:07:02;;;;;;;;;;;;;;;7.44;37.45;102244.03;1719504;81;20183;-80
2022/02/28 12:09:37;;;;;;;;;;;;;;;7.71;37.75;102247.37;1698966;82;21152;-83
2022/02/28 12:12:18;;;;;;;;;;;;;;;7.78;36.73;102247.87;1715715;82;20155;-84
2022/02/28 12:15:00;;;;;;;;;;;;;;;7.67;37.05;102243.20;1717113;82;20522;-80
2022/02/28 12:17:31;;;;;;;;;;;;;;;7.58;36.69;102244.55;1718163;82;20191;-79
2022/02/28 12:20:21;;;;;;;;;;;;;;;7.68;37.54;102244.91;1720145;82;20239;-80
2022/02/28 12:23:06;;;;;;;;;;;;;;;7.86;37.47;102251.77;1716594;82;21229;-78
2022/02/28 12:25:53;;;;;;;;;;;;;;;7.80;37.61;102242.91;1714337;82;20271;-81
2022/02/28 12:28:37;;;;;;;;;;;;;;;7.70;37.69;102245.66;1722391;82;20210;-76
2022/02/28 12:31:15;;;;;;;;;;;;;;;7.79;38.35;102247.78;1728063;81;20208;-77
2022/02/28 12:33:45;;;;;;;;;;;;;;;8.08;38.75;102241.34;1723986;81;20154;-78
2022/02/28 12:36:22;;;;;;;;;;;;;;;8.21;38.83;102249.38;1717167;82;21143;-80
2022/02/28 12:38:55;;;;;;;;;;;;;;;7.98;38.66;102250.21;1712935;81;20190;-79
2022/02/28 12:41:25;;;;;;;;;;;;;;;8.08;38.52;102250.08;1718483;82;20172;-80
2022/02/28 12:43:51;;;;;;;;;;;;;;;8.13;38.52;102248.98;1725190;81;20168;-84
2022/02/28 12:46:31;;;;;;;;;;;;;;;8.31;38.93;102250.99;1719234;82;21150;-82